Terminal Aerodrome Forecast
Issued by NWS

Home | Current Version | Previous Version | Graphics & Text | Print | Product List | Glossary On
Versions: 1 2 3 4 5 6 7 8 9 10 11 12 13 14 15 16 17 18 19
000
FTUS43 KGRB 271137
TAFRHI
TAF
KRHI 271137Z 2712/2812 21004KT 6SM BR SCT040 SCT080
      TEMPO 2712/2713 3SM BR BKN006
     FM271300 23005KT P6SM SCT015 SCT040
     FM271600 25008KT P6SM SCT050 BKN090
     FM272200 26004KT P6SM SCT040 BKN080 PROB30 2806/2812 3SM -SHRA
      BKN040=

USA.gov is the U.S. government's official web portal to all federal, state and local government web resources and services.